WetterOnline ( http://www.wetteronline.de )

Wetter aktuell Bonn

Aktuelles Wetter: Roleber (162m)

6-stündlich | Neueste Meldungen
Ortszeit Temperatur Wetter
Do, 15.11. 7:00 4.8° C wolkig
Do, 15.11. 1:00 7.0° C bedeckt
Mi, 14.11. 19:00 5.8° C wolkig
Mi, 14.11. 13:00 11.0° C leicht bewölkt
Mi, 14.11. 7:00 4.1° C leicht bewölkt
Mi, 14.11. 1:00 7.9° C wolkig
Di, 13.11. 19:00 9.0° C wolkenlos
Di, 13.11. 13:00 14.2° C wolkig
Ortszeit Temperatur Wetter
Do, 15.11. 9:00 5.3° C bedeckt
Do, 15.11. 8:50 5.3° C bedeckt
Do, 15.11. 8:40 5.2° C bewölkt
Do, 15.11. 8:30 4.7° C leicht bewölkt
Do, 15.11. 8:20 4.7° C leicht bewölkt
Do, 15.11. 8:10 4.3° C wolkenlos
Do, 15.11. 8:00 3.9° C wolkenlos
Do, 15.11. 7:30 4.4° C fast wolkenlos
Do, 15.11. 7:00 4.8° C wolkig
Do, 15.11. 6:30 4.9° C wolkig
Do, 15.11. 6:00 4.5° C wolkig
Ortszeit Relative Feuchte Sichtweite
Do, 15.11. 7:00 92% 6 km
Do, 15.11. 1:00 91% 7 km
Mi, 14.11. 19:00 93% 8 km
Mi, 14.11. 13:00 73% 30 km
Mi, 14.11. 7:00 95% 7 km
Mi, 14.11. 1:00 85% 30 km
Di, 13.11. 19:00 76% 55 km
Di, 13.11. 13:00 56% 45 km
Ortszeit Relative Feuchte Sichtweite
Do, 15.11. 9:00 90% 7 km
Do, 15.11. 8:50 90% -
Do, 15.11. 8:40 91% -
Do, 15.11. 8:30 93% 6 km
Do, 15.11. 8:20 93% -
Do, 15.11. 8:10 94% -
Do, 15.11. 8:00 94% 5.0 km
Do, 15.11. 7:30 93% 5.0 km
Do, 15.11. 7:00 92% 6 km
Do, 15.11. 6:30 92% 7 km
Do, 15.11. 6:00 94% 5.0 km
Ortszeit Niederschlagsmenge Niederschlagsart
Do, 15.11. 7:00 0.0 l/m2 in 12 Std. -
Do, 15.11. 1:00 0.0 l/m2 in 6 Std. -
Mi, 14.11. 19:00 0.0 l/m2 in 12 Std. -
Mi, 14.11. 13:00 0.0 l/m2 in 6 Std. -
Mi, 14.11. 7:00 0.0 l/m2 in 12 Std. -
Mi, 14.11. 1:00 0.0 l/m2 in 6 Std. -
Di, 13.11. 19:00 0.1 l/m2 in 12 Std. -
Di, 13.11. 13:00 0.1 l/m2 in 6 Std. Regen
Ortszeit Niederschlagsmenge Niederschlagsart
Do, 15.11. 9:00 0.0 l/m2 in 1 Std. -
Do, 15.11. 8:50 keine Meldung -
Do, 15.11. 8:40 keine Meldung -
Do, 15.11. 8:30 0.0 l/m2 in 1 Std. -
Do, 15.11. 8:20 keine Meldung -
Do, 15.11. 8:10 keine Meldung -
Do, 15.11. 8:00 0.0 l/m2 in 1 Std. -
Do, 15.11. 7:30 0.0 l/m2 in 1 Std. -
Do, 15.11. 7:00 0.0 l/m2 in 1 Std. -
Do, 15.11. 6:30 0.0 l/m2 in 1 Std. -
Do, 15.11. 6:00 0.0 l/m2 in 1 Std. -
Ortszeit Stärke Spitze Richtung
km/h Bft. km/h Grad Sektor
Do, 15.11. 7:00 14 3 25 130° SO
Do, 15.11. 1:00 17 3 24 130° SO
Mi, 14.11. 19:00 6 1 20 120° SO
Mi, 14.11. 13:00 9 2 17 110° O
Mi, 14.11. 7:00 7 2 25 150° SO
Mi, 14.11. 1:00 11 2 22 220° SW
Di, 13.11. 19:00 7 2 44 210° SW
Di, 13.11. 13:00 14 3 36 230° SW
Ortszeit Stärke Spitze Richtung
km/h Bft. km/h Grad Sektor
Do, 15.11. 9:00 19 3 28 130° SO
Do, 15.11. 8:50 19 3 - 130° SO
Do, 15.11. 8:40 17 3 - 120° SO
Do, 15.11. 8:30 13 3 19 130° SO
Do, 15.11. 8:20 13 3 - 130° SO
Do, 15.11. 8:10 11 2 - 120° SO
Do, 15.11. 8:00 11 2 18 130° SO
Do, 15.11. 7:30 11 2 18 130° SO
Do, 15.11. 7:00 14 3 25 130° SO
Do, 15.11. 6:30 15 3 20 130° SO
Do, 15.11. 6:00 11 2 18 130° SO
Ortszeit Untergrenze Bedeckung Gattung
total tief tief mittel hoch
Do, 15.11. 7:00 10500 m 8/8 0/8 - - -
Do, 15.11. 1:00 240 m 8/8 8/8 - - -
Mi, 14.11. 19:00 9000 m 8/8 0/8 - - -
Mi, 14.11. 13:00 10500 m 8/8 0/8 - - -
Mi, 14.11. 7:00 10500 m 5/8 0/8 - - -
Mi, 14.11. 1:00 10500 m 8/8 0/8 - - -
Di, 13.11. 19:00 - 0/8 0/8 - - -
Di, 13.11. 13:00 1020 m 6/8 5/8 - - -
Ortszeit Bedeckungsgrad in Achtel und Wolkenuntergrenze
Do, 15.11. 9:00 7(210m) 8(330m)
Do, 15.11. 8:50 7(210m) 8(330m)
Do, 15.11. 8:40 7(210m)
Do, 15.11. 8:30 3(240m)
Do, 15.11. 8:20 3(240m)
Do, 15.11. 8:10 keine Wolken
Do, 15.11. 8:00 keine Wolken
Do, 15.11. 7:30 2(10500m)
Do, 15.11. 7:00 8(10500m)
Do, 15.11. 6:30 8(10500m)
Do, 15.11. 6:00 8(10500m)
Ortszeit Luftdruck NN (hPa) Tendenz (hPa in 3 Std.)
Do, 15.11. 7:00 1027 - 0,2
Do, 15.11. 1:00 1027 - 0,1
Mi, 14.11. 19:00 1028 - 0,7
Mi, 14.11. 13:00 1029 - 1,1
Mi, 14.11. 7:00 1030 - 0,8
Mi, 14.11. 1:00 1031 + 0,4
Di, 13.11. 19:00 1029 + 2,2
Di, 13.11. 13:00 1025 + 0,8
Ortszeit Luftdruck NN (hPa) Tendenz (hPa in 3 Std.)
Do, 15.11. 9:00 1027 + 0,7
Do, 15.11. 8:50 1027 keine Meldung
Do, 15.11. 8:40 1027 keine Meldung
Do, 15.11. 8:30 1028 + 0,7
Do, 15.11. 8:20 1028 keine Meldung
Do, 15.11. 8:10 1027 keine Meldung
Do, 15.11. 8:00 1027 + 0,2
Do, 15.11. 7:30 1027 - 0,1
Do, 15.11. 7:00 1027 - 0,2
Do, 15.11. 6:30 1027 - 0,2
Do, 15.11. 6:00 1027 - 0,6
Ortszeit Schneehöhe (cm)
Do, 15.11. 7:00 0
Do, 15.11. 1:00 0
Mi, 14.11. 19:00 0
Mi, 14.11. 13:00 0
Mi, 14.11. 7:00 0
Mi, 14.11. 1:00 0
Di, 13.11. 19:00 0
Di, 13.11. 13:00 0
Ortszeit Schneehöhe (cm)
Do, 15.11. 9:00 0
Do, 15.11. 8:50 0
Do, 15.11. 8:40 0
Do, 15.11. 8:30 0
Do, 15.11. 8:20 0
Do, 15.11. 8:10 0
Do, 15.11. 8:00 0
Do, 15.11. 7:30 0
Do, 15.11. 7:00 0
Do, 15.11. 6:30 0
Do, 15.11. 6:00 0
Link zu dieser Seite / Seite empfehlen

Das Wetter in ...